Time;durP1;ratioP1;P1;durP2;ratioP2;P2;SDS_P1;SDS_P2;PMS_P1;PMS_P2;Temp;Humidity;BMP_temperature;BMP_pressure;BME280_temperature;BME280_humidity;BME280_pressure;Samples;Min_cycle;Max_cycle;Signal;HPM_P1;HPM_P2
2023/04/19 00:00:19;;;;;;;15.77;11.25;;;;;;;3.85;100.00;102895.69;5033647;28;20041;-71
2023/04/19 00:02:44;;;;;;;11.52;9.73;;;;;;;3.83;100.00;102892.25;5034726;28;20043;-71
2023/04/19 00:05:12;;;;;;;13.32;9.95;;;;;;;3.78;100.00;102889.75;5034123;28;20033;-71
2023/04/19 00:07:37;;;;;;;13.60;10.70;;;;;;;3.75;100.00;102887.22;5033999;28;20034;-70
2023/04/19 00:10:03;;;;;;;15.25;10.95;;;;;;;3.71;100.00;102885.56;5034236;28;20110;-71
2023/04/19 00:12:28;;;;;;;16.15;10.35;;;;;;;3.65;100.00;102894.50;5033262;28;20029;-70
2023/04/19 00:14:54;;;;;;;16.33;11.40;;;;;;;3.64;100.00;102891.91;5033886;28;20394;-70
2023/04/19 00:17:20;;;;;;;14.23;10.23;;;;;;;3.58;100.00;102898.22;5033827;28;20052;-72
2023/04/19 00:19:45;;;;;;;12.57;9.77;;;;;;;3.55;100.00;102900.94;5032869;28;20116;-70
2023/04/19 00:22:11;;;;;;;14.32;10.15;;;;;;;3.51;100.00;102891.44;5033864;28;20033;-71
2023/04/19 00:24:36;;;;;;;13.70;10.48;;;;;;;3.49;100.00;102890.59;5033797;28;20030;-71
2023/04/19 00:27:02;;;;;;;18.10;11.32;;;;;;;3.46;100.00;102890.66;5033701;28;20037;-69
2023/04/19 00:29:28;;;;;;;16.63;10.18;;;;;;;3.42;100.00;102889.91;5033590;28;20036;-71
2023/04/19 00:31:53;;;;;;;17.52;10.60;;;;;;;3.40;100.00;102885.59;5033823;28;20041;-71
2023/04/19 00:34:18;;;;;;;16.48;9.85;;;;;;;3.37;100.00;102891.78;5033610;28;20490;-72
2023/04/19 00:36:44;;;;;;;13.55;10.32;;;;;;;3.33;100.00;102892.78;5032489;28;20116;-71
2023/04/19 00:39:09;;;;;;;14.10;10.52;;;;;;;3.32;100.00;102884.03;5033523;28;20033;-70
2023/04/19 00:41:34;;;;;;;15.23;10.40;;;;;;;3.30;100.00;102884.94;5033514;28;20033;-70
2023/04/19 00:44:00;;;;;;;15.65;10.88;;;;;;;3.29;100.00;102884.09;5031724;28;20185;-71
2023/04/19 00:46:26;;;;;;;15.65;11.25;;;;;;;3.27;100.00;102880.66;5033212;28;20037;-71
2023/04/19 00:48:52;;;;;;;16.35;11.18;;;;;;;3.27;100.00;102883.28;5033315;28;20095;-71
2023/04/19 00:51:18;;;;;;;15.55;9.75;;;;;;;3.26;100.00;102881.56;5033305;28;20172;-70
2023/04/19 00:53:45;;;;;;;13.85;9.55;;;;;;;3.21;100.00;102874.69;5033183;28;20037;-70
2023/04/19 00:56:12;;;;;;;15.70;9.55;;;;;;;3.18;100.00;102875.66;5033167;28;20061;-70
2023/04/19 00:58:38;;;;;;;16.85;9.95;;;;;;;3.15;100.00;102875.72;5033547;28;20029;-70
2023/04/19 01:01:05;;;;;;;15.80;10.90;;;;;;;3.13;100.00;102875.75;5033585;28;20570;-70
2023/04/19 01:03:30;;;;;;;13.70;9.57;;;;;;;3.12;100.00;102881.94;5033099;28;20034;-71
2023/04/19 01:05:56;;;;;;;14.77;10.15;;;;;;;3.10;100.00;102873.19;5032903;28;20186;-71
2023/04/19 01:08:22;;;;;;;15.13;10.40;;;;;;;3.11;100.00;102866.19;5034375;28;20055;-70
2023/04/19 01:10:47;;;;;;;18.45;9.85;;;;;;;3.10;100.00;102867.94;5033291;28;20372;-71
2023/04/19 01:13:13;;;;;;;14.07;9.75;;;;;;;3.07;100.00;102869.81;5032853;28;20127;-70
2023/04/19 01:15:38;;;;;;;12.60;9.68;;;;;;;3.06;100.00;102866.31;5033650;28;20033;-70
2023/04/19 01:18:04;;;;;;;14.52;10.48;;;;;;;3.06;100.00;102863.69;5033247;28;20034;-70
2023/04/19 01:20:29;;;;;;;15.15;10.45;;;;;;;3.04;100.00;102864.63;5033487;28;20448;-72
2023/04/19 01:22:55;;;;;;;12.02;9.27;;;;;;;3.01;100.00;102865.56;5032894;28;20034;-71
2023/04/19 01:25:20;;;;;;;13.20;9.23;;;;;;;2.99;100.00;102859.50;5032635;28;20039;-70
2023/04/19 01:27:45;;;;;;;14.02;10.40;;;;;;;2.99;100.00;102862.13;5033012;28;20091;-72
2023/04/19 01:30:11;;;;;;;15.23;10.75;;;;;;;2.98;100.00;102855.13;5032464;28;20044;-70
2023/04/19 01:32:37;;;;;;;16.02;10.73;;;;;;;2.98;100.00;102855.97;5032782;28;20049;-70
2023/04/19 01:35:02;;;;;;;16.02;10.63;;;;;;;3.02;100.00;102861.19;5031399;28;20045;-70
2023/04/19 01:37:28;;;;;;;18.92;11.15;;;;;;;3.03;100.00;102860.25;5033053;28;20465;-70
2023/04/19 01:39:53;;;;;;;14.60;10.70;;;;;;;2.99;100.00;102855.09;5032652;28;20095;-70
2023/04/19 01:42:19;;;;;;;17.63;11.40;;;;;;;2.99;100.00;102854.22;5032711;28;20037;-70
2023/04/19 01:44:44;;;;;;;14.00;10.70;;;;;;;3.00;100.00;102858.56;5033236;28;20099;-70
2023/04/19 01:47:10;;;;;;;19.08;12.20;;;;;;;2.99;100.00;102860.34;5032818;28;20103;-70
2023/04/19 01:49:35;;;;;;;15.93;11.27;;;;;;;2.99;100.00;102854.22;5032529;28;20025;-70
2023/04/19 01:52:01;;;;;;;19.58;12.20;;;;;;;3.01;100.00;102860.31;5032745;28;20031;-70
2023/04/19 01:54:26;;;;;;;17.77;11.52;;;;;;;2.98;100.00;102855.13;5033156;28;20418;-71
2023/04/19 01:56:51;;;;;;;20.63;11.73;;;;;;;2.94;100.00;102850.84;5032892;28;20038;-71
2023/04/19 01:59:17;;;;;;;18.13;11.73;;;;;;;2.94;100.00;102846.47;5031479;28;20452;-71
2023/04/19 02:01:42;;;;;;;17.77;12.18;;;;;;;2.96;100.00;102852.53;5032338;28;20033;-71
2023/04/19 02:04:08;;;;;;;17.05;11.93;;;;;;;2.97;100.00;102856.03;5032537;28;20034;-71
2023/04/19 02:06:33;;;;;;;25.88;14.25;;;;;;;2.98;100.00;102855.97;5032648;28;20128;-71
2023/04/19 02:08:58;;;;;;;22.55;13.40;;;;;;;3.04;100.00;102848.84;5031146;28;20474;-71
2023/04/19 02:11:24;;;;;;;18.65;12.35;;;;;;;3.07;100.00;102846.13;5031393;28;20033;-71
2023/04/19 02:13:49;;;;;;;19.13;13.05;;;;;;;3.10;100.00;102849.53;5031317;28;20025;-70
2023/04/19 02:16:15;;;;;;;21.67;12.90;;;;;;;3.13;100.00;102852.06;5032668;28;20084;-71
2023/04/19 02:18:40;;;;;;;24.90;14.48;;;;;;;3.18;100.00;102846.72;5032526;28;20038;-71
2023/04/19 02:21:07;;;;;;;22.90;14.65;;;;;;;3.22;100.00;102852.75;5032410;28;20112;-71
2023/04/19 02:23:32;;;;;;;23.70;13.73;;;;;;;3.31;100.00;102841.97;5033687;28;20116;-71
2023/04/19 02:25:58;;;;;;;24.35;13.43;;;;;;;3.37;100.00;102846.19;5035990;28;20065;-71
2023/04/19 02:28:23;;;;;;;26.65;15.13;;;;;;;3.45;100.00;102847.72;5035950;28;20037;-71
2023/04/19 02:30:48;;;;;;;23.15;15.05;;;;;;;3.53;100.00;102839.59;5035815;28;20060;-71
2023/04/19 02:33:14;;;;;;;28.20;15.32;;;;;;;3.63;100.00;102843.69;5035682;28;20033;-70
2023/04/19 02:35:40;;;;;;;23.88;15.20;;;;;;;3.72;100.00;102847.81;5035542;28;20025;-71
2023/04/19 02:38:05;;;;;;;26.98;14.98;;;;;;;3.82;100.00;102849.28;5034647;28;20056;-70
2023/04/19 02:40:31;;;;;;;25.50;15.27;;;;;;;3.93;100.00;102853.34;5036083;28;20163;-71
2023/04/19 02:42:56;;;;;;;25.15;14.73;;;;;;;4.02;100.00;102853.91;5035566;28;20037;-71
2023/04/19 02:45:23;;;;;;;23.40;14.07;;;;;;;4.10;100.00;102855.47;5035505;28;20107;-71
2023/04/19 02:47:48;;;;;;;25.05;14.52;;;;;;;4.13;100.00;102845.69;5035585;28;20462;-71
2023/04/19 02:50:16;;;;;;;24.83;15.07;;;;;;;4.23;100.00;102852.38;5035800;28;20049;-71
2023/04/19 02:52:41;;;;;;;24.95;14.55;;;;;;;4.36;100.00;102854.63;5035178;28;20033;-71
2023/04/19 02:55:07;;;;;;;23.38;13.40;;;;;;;4.47;100.00;102852.50;5035404;28;20035;-71
2023/04/19 02:57:32;;;;;;;22.40;14.98;;;;;;;4.63;100.00;102850.25;5035617;28;20387;-71
2023/04/19 02:59:58;;;;;;;25.48;14.88;;;;;;;4.76;100.00;102851.56;5034056;28;20057;-71
2023/04/19 03:02:24;;;;;;;22.70;13.52;;;;;;;4.90;100.00;102856.34;5035464;28;20040;-70
2023/04/19 03:04:49;;;;;;;21.38;14.48;;;;;;;5.01;100.00;102847.19;5035155;28;20048;-70
2023/04/19 03:07:15;;;;;;;18.88;12.85;;;;;;;5.12;100.00;102850.34;5035115;28;20029;-71
2023/04/19 03:09:40;;;;;;;18.80;13.73;;;;;;;5.21;100.00;102855.28;5017306;28;20030;-71
2023/04/19 03:12:06;;;;;;;19.52;13.75;;;;;;;5.31;100.00;102853.16;5033887;28;20064;-71
2023/04/19 03:14:32;;;;;;;19.92;13.05;;;;;;;5.41;100.00;102853.69;5035382;28;20482;-71
2023/04/19 03:16:58;;;;;;;19.98;13.02;;;;;;;5.53;100.00;102855.88;5034941;28;20033;-72
2023/04/19 03:19:24;;;;;;;18.15;12.65;;;;;;;5.61;100.00;102856.47;5034968;28;20048;-71
2023/04/19 03:21:49;;;;;;;16.85;11.98;;;;;;;5.70;100.00;102857.03;5035269;28;20375;-70
2023/04/19 03:24:15;;;;;;;20.00;11.95;;;;;;;5.78;100.00;102850.53;5033618;28;20368;-71
2023/04/19 03:26:40;;;;;;;20.48;12.52;;;;;;;5.82;100.00;102841.56;5034664;28;20040;-70
2023/04/19 03:29:05;;;;;;;18.45;11.80;;;;;;;5.93;100.00;102843.78;5033806;28;20041;-71
2023/04/19 03:31:31;;;;;;;19.83;12.15;;;;;;;5.99;100.00;102837.44;5034683;28;20033;-70
2023/04/19 03:33:56;;;;;;;20.85;12.65;;;;;;;6.03;100.00;102844.34;5034632;28;20041;-70
2023/04/19 03:36:21;;;;;;;17.77;11.38;;;;;;;6.06;100.00;102838.94;5034186;28;20034;-70
2023/04/19 03:38:47;;;;;;;19.77;12.55;;;;;;;6.09;100.00;102838.81;5033475;28;20029;-70
2023/04/19 03:41:20;;;;;;;17.00;11.82;;;;;;;6.14;100.00;102843.91;5034736;28;20108;-70
2023/04/19 03:43:45;;;;;;;15.63;11.50;;;;;;;6.17;100.00;102841.13;5034460;28;20029;-70
2023/04/19 03:46:11;;;;;;;15.75;11.57;;;;;;;6.17;100.00;102828.78;5035070;28;20045;-70
2023/04/19 03:48:36;;;;;;;16.42;11.73;;;;;;;6.23;100.00;102835.59;5016873;28;20065;-70
2023/04/19 03:51:02;;;;;;;19.08;12.00;;;;;;;6.24;100.00;102836.44;5033046;28;20033;-70
2023/04/19 03:53:27;;;;;;;15.32;11.32;;;;;;;6.28;100.00;102841.56;5034240;28;20041;-70
2023/04/19 03:55:53;;;;;;;18.42;11.35;;;;;;;6.33;100.00;102834.31;5035040;28;20126;-70
2023/04/19 03:58:18;;;;;;;17.83;10.82;;;;;;;6.37;100.00;102839.47;5034733;28;20037;-70
2023/04/19 04:00:43;;;;;;;16.65;10.48;;;;;;;6.40;100.00;102836.69;5033241;28;20091;-70
2023/04/19 04:03:09;;;;;;;16.52;11.35;;;;;;;6.44;100.00;102838.31;5034547;28;20029;-70
2023/04/19 04:05:35;;;;;;;17.30;10.55;;;;;;;6.45;100.00;102838.25;5033942;28;20029;-70
2023/04/19 04:08:01;;;;;;;15.63;11.07;;;;;;;6.46;100.00;102842.59;5032600;28;20061;-70
2023/04/19 04:10:26;;;;;;;20.27;10.95;;;;;;;6.48;100.00;102840.75;5033974;28;20121;-72
2023/04/19 04:12:51;;;;;;;15.68;10.52;;;;;;;6.50;100.00;102835.41;5032758;28;20034;-71
2023/04/19 04:15:17;;;;;;;16.55;10.43;;;;;;;6.50;100.00;102841.53;5034409;28;20033;-71
2023/04/19 04:17:42;;;;;;;17.58;11.43;;;;;;;6.53;100.00;102840.56;5032703;28;20116;-71
2023/04/19 04:20:12;;;;;;;18.55;11.30;;;;;;;6.56;100.00;102842.22;5033422;28;20464;-70
2023/04/19 04:22:42;;;;;;;17.75;11.13;;;;;;;6.57;100.00;102849.22;5033916;28;20034;-70
2023/04/19 04:25:08;;;;;;;17.65;10.85;;;;;;;6.56;100.00;102845.72;5033755;28;20029;-71
2023/04/19 04:27:34;;;;;;;14.45;10.82;;;;;;;6.60;100.00;102847.31;5033885;28;20069;-70
2023/04/19 04:30:00;;;;;;;15.75;10.13;;;;;;;6.62;100.00;102849.91;5033478;28;20071;-71
2023/04/19 04:32:26;;;;;;;17.52;10.68;;;;;;;6.62;100.00;102840.16;5033707;28;20092;-71
2023/04/19 04:34:51;;;;;;;15.63;10.07;;;;;;;6.64;100.00;102848.91;5033208;28;20034;-70
2023/04/19 04:37:17;;;;;;;15.50;10.55;;;;;;;6.67;100.00;102855.84;5033847;28;20029;-71
2023/04/19 04:39:42;;;;;;;16.92;11.00;;;;;;;6.68;100.00;102853.13;5033219;28;20040;-70
2023/04/19 04:42:08;;;;;;;15.20;10.10;;;;;;;6.69;100.00;102848.72;5033392;28;20038;-72
2023/04/19 04:44:35;;;;;;;16.73;10.65;;;;;;;6.70;100.00;102847.78;5033377;28;20356;-70
2023/04/19 04:47:00;;;;;;;17.80;11.13;;;;;;;6.70;100.00;102859.25;5033154;28;20037;-70
2023/04/19 04:49:26;;;;;;;16.58;11.18;;;;;;;6.72;100.00;102859.19;5033465;28;20088;-70
2023/04/19 04:51:51;;;;;;;19.73;9.55;;;;;;;6.74;100.00;102861.75;5034114;28;20056;-70
2023/04/19 04:54:16;;;;;;;14.52;10.95;;;;;;;6.77;100.00;102862.47;5033157;28;20083;-70
2023/04/19 04:56:41;;;;;;;16.67;10.55;;;;;;;6.77;100.00;102861.63;5033295;28;20038;-69
2023/04/19 04:59:07;;;;;;;16.50;10.65;;;;;;;6.78;100.00;102866.84;5033213;28;20510;-70
2023/04/19 05:01:32;;;;;;;15.98;10.55;;;;;;;6.82;100.00;102864.91;5033008;28;20495;-69
2023/04/19 05:03:58;;;;;;;14.63;10.02;;;;;;;6.86;100.00;102861.22;5033358;28;20038;-70
2023/04/19 05:06:24;;;;;;;15.35;10.23;;;;;;;6.89;100.00;102869.03;5031959;28;20029;-70
2023/04/19 05:08:50;;;;;;;19.17;10.57;;;;;;;6.93;100.00;102864.50;5033048;28;20064;-70
2023/04/19 05:11:16;;;;;;;14.18;10.02;;;;;;;6.96;100.00;102870.50;5032889;28;20072;-70
2023/04/19 05:13:41;;;;;;;15.98;10.05;;;;;;;6.98;100.00;102865.97;5033151;28;20424;-70
2023/04/19 05:16:06;;;;;;;14.93;9.82;;;;;;;7.03;100.00;102864.03;5032919;28;20121;-70
2023/04/19 05:18:32;;;;;;;13.80;9.48;;;;;;;7.06;100.00;102869.19;5033314;28;20030;-70
2023/04/19 05:20:57;;;;;;;14.02;9.57;;;;;;;7.10;100.00;102863.75;5032881;28;20479;-70
2023/04/19 05:23:23;;;;;;;11.02;8.57;;;;;;;7.13;100.00;102867.09;5032809;28;20068;-70
2023/04/19 05:25:48;;;;;;;17.95;9.18;;;;;;;7.13;100.00;102868.91;5031453;28;20106;-70
2023/04/19 05:28:13;;;;;;;12.10;9.02;;;;;;;7.12;100.00;102869.81;5032490;28;20033;-72
2023/04/19 05:30:39;;;;;;;17.95;9.65;;;;;;;7.05;100.00;102878.03;5032445;28;20052;-70
2023/04/19 05:33:04;;;;;;;14.43;9.50;;;;;;;7.00;100.00;102880.03;5032995;28;20529;-70
2023/04/19 05:35:30;;;;;;;15.38;9.50;;;;;;;6.94;100.00;102877.66;5032336;28;20510;-69
2023/04/19 05:37:55;;;;;;;11.63;8.93;;;;;;;6.89;100.00;102884.91;5032694;28;20112;-70
2023/04/19 05:40:22;;;;;;;12.98;9.15;;;;;;;6.86;100.00;102887.69;5032574;28;20434;-70
2023/04/19 05:42:48;;;;;;;13.95;9.57;;;;;;;6.82;100.00;102881.69;5032553;28;20045;-70
2023/04/19 05:45:15;;;;;;;19.98;10.15;;;;;;;6.81;100.00;102889.69;5032700;28;20056;-70
2023/04/19 05:47:41;;;;;;;14.52;10.13;;;;;;;6.80;100.00;102887.94;5031222;28;20057;-71
2023/04/19 05:50:06;;;;;;;13.70;9.07;;;;;;;6.83;100.00;102882.53;5031507;28;20111;-71
2023/04/19 05:52:32;;;;;;;15.55;9.60;;;;;;;6.89;100.00;102885.75;5032220;28;20034;-70
2023/04/19 05:54:58;;;;;;;14.65;9.48;;;;;;;7.04;100.00;102889.53;5032505;28;20479;-69
2023/04/19 05:57:23;;;;;;;15.32;9.57;;;;;;;7.22;100.00;102893.19;5033021;28;20041;-71
2023/04/19 05:59:49;;;;;;;15.18;9.82;;;;;;;7.37;100.00;102890.78;5035684;28;20068;-71
2023/04/19 06:02:14;;;;;;;15.10;8.80;;;;;;;7.46;100.00;102894.81;5035883;28;20498;-71
2023/04/19 06:04:40;;;;;;;15.63;8.80;;;;;;;7.48;100.00;102893.84;5036064;28;20068;-71
2023/04/19 06:07:06;;;;;;;12.82;9.38;;;;;;;7.46;100.00;102892.19;5036058;28;20032;-73
2023/04/19 06:09:31;;;;;;;13.85;9.63;;;;;;;7.43;100.00;102884.38;5035796;28;20034;-72
2023/04/19 06:11:56;;;;;;;13.45;8.80;;;;;;;7.41;100.00;102890.59;5035949;28;20490;-72
2023/04/19 06:14:22;;;;;;;19.42;9.63;;;;;;;7.44;100.00;102900.19;5035873;28;20034;-73
2023/04/19 06:16:47;;;;;;;12.73;8.82;;;;;;;7.45;100.00;102906.34;5034581;28;20053;-72
2023/04/19 06:19:13;;;;;;;11.98;8.68;;;;;;;7.48;100.00;102900.91;5035859;28;20422;-72
2023/04/19 06:21:38;;;;;;;14.32;9.05;;;;;;;7.52;100.00;102897.19;5035754;28;20041;-71
2023/04/19 06:24:05;;;;;;;17.67;9.30;;;;;;;7.55;100.00;102897.94;5035804;28;20045;-69
2023/04/19 06:26:31;;;;;;;12.18;8.63;;;;;;;7.61;100.00;102907.38;5034411;28;20391;-72
2023/04/19 06:28:56;;;;;;;15.15;9.02;;;;;;;7.66;100.00;102896.56;5036037;28;20037;-72
2023/04/19 06:31:22;;;;;;;11.80;8.35;;;;;;;7.73;100.00;102901.53;5035476;28;20128;-72
2023/04/19 06:33:47;;;;;;;12.73;9.25;;;;;;;7.80;100.00;102902.09;5035536;28;20026;-70
2023/04/19 06:36:13;;;;;;;12.93;8.93;;;;;;;7.88;100.00;102901.75;5035395;28;20037;-71
2023/04/19 06:38:38;;;;;;;13.48;8.65;;;;;;;7.97;100.00;102911.06;5035122;28;20124;-72
2023/04/19 06:41:04;;;;;;;13.38;8.82;;;;;;;8.04;100.00;102896.59;5035362;28;20047;-73
2023/04/19 06:43:29;;;;;;;12.95;8.63;;;;;;;8.14;100.00;102891.72;5034152;28;20060;-72
2023/04/19 06:46:03;;;;;;;12.27;8.55;;;;;;;8.26;100.00;102896.44;5035803;28;20053;-70
2023/04/19 06:48:29;;;;;;;13.02;8.52;;;;;;;8.36;100.00;102905.69;5035775;28;20041;-71
2023/04/19 06:50:54;;;;;;;14.48;8.43;;;;;;;8.45;100.00;102899.94;5034257;28;20079;-70
2023/04/19 06:53:19;;;;;;;13.40;8.90;;;;;;;8.58;100.00;102902.00;5035290;28;20387;-69
2023/04/19 06:55:45;;;;;;;11.82;8.48;;;;;;;8.62;100.00;102903.56;5035852;28;20033;-69
2023/04/19 06:58:10;;;;;;;12.65;8.02;;;;;;;8.69;100.00;102897.03;5035247;28;20459;-71
2023/04/19 07:00:36;;;;;;;12.55;8.48;;;;;;;8.77;100.00;102902.78;5035044;28;20033;-71
2023/04/19 07:03:01;;;;;;;10.95;7.95;;;;;;;8.85;100.00;102901.56;5035083;28;20034;-72
2023/04/19 07:05:28;;;;;;;12.50;7.95;;;;;;;8.91;100.00;102901.25;5034945;28;20025;-72
2023/04/19 07:07:54;;;;;;;13.63;7.13;;;;;;;8.98;100.00;102894.69;5034931;28;20052;-71
2023/04/19 07:10:19;;;;;;;10.10;7.57;;;;;;;9.04;100.00;102897.03;5034405;28;20037;-70
2023/04/19 07:12:45;;;;;;;11.73;7.50;;;;;;;9.09;100.00;102897.66;5034452;28;20120;-71
2023/04/19 07:15:10;;;;;;;10.57;7.78;;;;;;;9.16;100.00;102896.38;5034734;28;20052;-71
2023/04/19 07:17:37;;;;;;;12.25;7.57;;;;;;;9.27;100.00;102892.31;5033335;28;20105;-71
2023/04/19 07:20:05;;;;;;;11.65;8.10;;;;;;;9.35;100.00;102892.78;5034728;28;20068;-71
2023/04/19 07:22:30;;;;;;;11.10;7.22;;;;;;;9.45;100.00;102893.13;5034806;28;20034;-71
2023/04/19 07:24:56;;;;;;;8.77;7.10;;;;;;;9.52;100.00;102895.41;5034534;28;20120;-71
2023/04/19 07:27:21;;;;;;;11.65;6.93;;;;;;;9.59;100.00;102895.09;5034444;28;20034;-70
2023/04/19 07:29:47;;;;;;;9.82;6.90;;;;;;;9.65;100.00;102895.59;5034436;28;20026;-70
2023/04/19 07:32:15;;;;;;;11.18;7.60;;;;;;;9.70;100.00;102890.91;5035039;28;20061;-70
2023/04/19 07:34:41;;;;;;;11.30;6.85;;;;;;;9.76;100.00;102891.50;5034686;28;20073;-70
2023/04/19 07:37:06;;;;;;;11.25;7.25;;;;;;;9.84;100.00;102890.13;5034572;28;20033;-70
2023/04/19 07:39:32;;;;;;;10.80;7.00;;;;;;;9.94;100.00;102884.31;5034563;28;20041;-70
2023/04/19 07:41:58;;;;;;;15.15;7.35;;;;;;;10.02;100.00;102880.28;5033431;28;20455;-71
2023/04/19 07:44:23;;;;;;;8.63;6.70;;;;;;;10.08;100.00;102871.13;5034313;28;20038;-74
2023/04/19 07:46:49;;;;;;;10.57;7.47;;;;;;;10.18;100.00;102877.63;5034869;28;20061;-71
2023/04/19 07:49:15;;;;;;;10.05;7.55;;;;;;;10.23;100.00;102875.56;5034602;28;20083;-71
2023/04/19 07:51:40;;;;;;;12.13;7.07;;;;;;;10.27;100.00;102873.59;5034303;28;20072;-71
2023/04/19 07:54:06;;;;;;;10.52;7.03;;;;;;;10.34;100.00;102877.63;5034581;28;20037;-71
2023/04/19 07:56:32;;;;;;;9.20;7.18;;;;;;;10.52;100.00;102880.19;5034382;28;20163;-72
2023/04/19 07:58:58;;;;;;;12.73;6.82;;;;;;;10.71;100.00;102872.00;5034244;28;20056;-70
2023/04/19 08:01:23;;;;;;;11.23;6.72;;;;;;;10.97;100.00;102874.91;5034467;28;20029;-70
2023/04/19 08:03:49;;;;;;;8.90;6.05;;;;;;;11.14;100.00;102874.75;5034458;28;20040;-70
2023/04/19 08:06:14;;;;;;;11.15;5.95;;;;;;;11.20;100.00;102878.84;5034405;28;20375;-69
2023/04/19 08:08:39;;;;;;;8.55;6.03;;;;;;;11.38;100.00;102867.06;5033766;28;20471;-70
2023/04/19 08:11:05;;;;;;;12.02;6.10;;;;;;;11.67;100.00;102875.03;5033575;28;20045;-70
2023/04/19 08:13:30;;;;;;;12.57;5.90;;;;;;;11.98;100.00;102870.47;5033743;28;20079;-70
2023/04/19 08:15:56;;;;;;;8.77;5.70;;;;;;;12.25;99.92;102870.47;5034145;28;20451;-69
2023/04/19 08:18:22;;;;;;;7.50;5.07;;;;;;;12.51;91.75;102867.91;5033790;28;20029;-68
2023/04/19 08:20:47;;;;;;;10.52;5.63;;;;;;;13.05;83.36;102864.25;5033132;28;20087;-68
2023/04/19 08:23:13;;;;;;;9.77;6.78;;;;;;;13.54;83.92;102868.00;5034056;28;20122;-68
2023/04/19 08:25:39;;;;;;;10.48;5.60;;;;;;;13.88;70.55;102858.44;5033695;28;20390;-70
2023/04/19 08:28:05;;;;;;;9.70;5.20;;;;;;;14.01;65.63;102862.88;5033653;28;20552;-78
2023/04/19 08:30:31;;;;;;;9.70;5.70;;;;;;;13.97;67.76;102856.03;5033638;28;20076;-77
2023/04/19 08:32:56;;;;;;;13.82;4.85;;;;;;;14.04;66.35;102862.66;5033359;28;20475;-74
2023/04/19 08:35:22;;;;;;;11.02;5.18;;;;;;;13.96;66.04;102862.34;5034192;28;20125;-73
2023/04/19 08:37:48;;;;;;;9.80;5.95;;;;;;;14.02;68.11;102864.59;5033846;28;20037;-75
2023/04/19 08:40:15;;;;;;;8.68;5.20;;;;;;;14.04;64.45;102862.66;5034644;28;20118;-88
2023/04/19 08:42:41;;;;;;;9.75;4.95;;;;;;;13.87;65.48;102861.22;5033540;28;20033;-76
2023/04/19 08:45:07;;;;;;;9.50;4.90;;;;;;;13.83;64.50;102857.03;5033455;28;20130;-69
2023/04/19 08:47:33;;;;;;;5.70;4.40;;;;;;;13.87;63.79;102861.22;5033250;28;20426;-68
2023/04/19 08:50:00;;;;;;;6.68;4.85;;;;;;;14.02;65.58;102862.75;5033094;28;20025;-69
2023/04/19 08:52:26;;;;;;;7.90;4.70;;;;;;;14.24;62.69;102863.84;5033626;28;20033;-69
2023/04/19 08:54:54;;;;;;;6.70;4.65;;;;;;;14.35;59.38;102863.91;5033241;28;20482;-69
2023/04/19 08:57:19;;;;;;;14.00;5.20;;;;;;;14.53;59.92;102869.72;5033377;28;20029;-69
2023/04/19 08:59:47;;;;;;;10.90;4.43;;;;;;;14.93;58.42;102868.53;5033925;28;20037;-69
2023/04/19 09:02:14;;;;;;;16.08;4.72;;;;;;;15.39;56.49;102864.06;5033192;28;20034;-68
2023/04/19 09:04:40;;;;;;;7.40;4.20;;;;;;;16.38;56.08;102856.97;5031787;28;20033;-68
2023/04/19 09:07:07;;;;;;;5.63;4.60;;;;;;;17.12;48.59;102857.94;5033254;28;20029;-69
2023/04/19 09:09:33;;;;;;;6.63;4.30;;;;;;;17.79;48.95;102856.50;5033447;28;20033;-69
2023/04/19 09:11:58;;;;;;;7.78;4.00;;;;;;;18.69;44.72;102857.31;5032842;28;20029;-68
2023/04/19 09:14:25;;;;;;;5.43;3.53;;;;;;;19.33;43.07;102855.75;5033001;28;20124;-68
2023/04/19 09:16:51;;;;;;;5.38;3.97;;;;;;;19.81;42.34;102852.97;5032744;28;20384;-69
2023/04/19 09:19:17;;;;;;;9.65;3.92;;;;;;;20.49;41.20;102855.16;5033473;28;20037;-68
2023/04/19 09:21:43;;;;;;;5.82;3.70;;;;;;;20.77;38.35;102855.94;5033032;28;20433;-72
2023/04/19 09:24:09;;;;;;;6.25;3.40;;;;;;;20.85;36.14;102847.03;5032716;28;20037;-69
2023/04/19 09:26:35;;;;;;;5.30;3.42;;;;;;;21.26;36.09;102846.44;5033042;28;20037;-69
2023/04/19 09:29:05;;;;;;;4.40;2.88;;;;;;;21.43;34.83;102841.94;5033607;28;20103;-69
2023/04/19 09:31:33;;;;;;;6.00;3.22;;;;;;;21.58;33.69;102837.63;5031638;28;20040;-68
2023/04/19 09:34:18;;;;;;;6.63;3.22;;;;;;;21.22;33.64;102839.63;5035087;28;20029;-68
2023/04/19 09:36:44;;;;;;;6.68;2.78;;;;;;;21.20;33.25;102834.38;5037345;28;20045;-70
2023/04/19 09:39:10;;;;;;;11.15;2.88;;;;;;;21.28;32.68;102836.28;5036740;28;20036;-69
2023/04/19 09:41:52;;;;;;;7.80;2.92;;;;;;;21.06;32.14;102837.69;5036838;28;20111;-70
2023/04/19 09:44:18;;;;;;;6.38;2.78;;;;;;;20.52;31.23;102835.94;5036650;28;20435;-69
2023/04/19 09:46:47;;;;;;;4.28;2.70;;;;;;;21.33;32.81;102833.09;5037566;28;20049;-70
2023/04/19 09:49:15;;;;;;;6.00;3.15;;;;;;;21.94;32.10;102825.69;5036909;28;20068;-69
2023/04/19 09:51:46;;;;;;;3.78;2.75;;;;;;;21.57;32.01;102826.94;5036739;28;20080;-70
2023/04/19 09:54:13;;;;;;;6.03;2.25;;;;;;;21.19;32.35;102819.16;5036848;28;20025;-71
2023/04/19 09:56:39;;;;;;;5.82;2.20;;;;;;;21.37;30.74;102829.88;5035798;28;20459;-80
2023/04/19 09:59:06;;;;;;;4.63;2.60;;;;;;;21.36;31.04;102825.47;5037207;28;20036;-73
2023/04/19 10:01:38;;;;;;;4.10;2.20;;;;;;;21.65;29.30;102824.28;5036576;28;20033;-73
2023/04/19 10:04:05;;;;;;;5.43;2.20;;;;;;;21.64;29.12;102826.13;5036590;28;20044;-72
2023/04/19 10:06:33;;;;;;;4.15;2.22;;;;;;;21.22;29.77;102813.41;5037166;28;20022;-72
2023/04/19 10:09:04;;;;;;;3.40;2.08;;;;;;;21.86;30.74;102821.13;5037497;28;20474;-73
2023/04/19 10:11:37;;;;;;;8.40;2.22;;;;;;;22.07;29.90;102814.38;5038038;28;20467;-72
2023/04/19 10:14:05;;;;;;;7.78;2.45;;;;;;;22.61;29.82;102817.44;5035910;28;20029;-71
2023/04/19 10:16:31;;;;;;;4.50;2.28;;;;;;;22.33;30.23;102819.66;5036383;28;20037;-73
2023/04/19 10:18:57;;;;;;;5.25;2.05;;;;;;;22.01;28.79;102815.88;5034812;28;20034;-72
2023/04/19 10:21:26;;;;;;;3.25;1.92;;;;;;;22.59;28.19;102824.06;5035213;28;20124;-72
2023/04/19 10:23:52;;;;;;;3.05;2.00;;;;;;;22.38;27.70;102820.00;5035944;28;20036;-71
2023/04/19 10:26:17;;;;;;;5.88;1.85;;;;;;;22.43;28.21;102823.03;5036156;28;20108;-72
2023/04/19 10:28:42;;;;;;;4.20;2.05;;;;;;;22.24;28.71;102817.94;5036049;28;20034;-75
2023/04/19 10:31:14;;;;;;;3.17;1.85;;;;;;;22.05;29.31;102819.09;5036291;28;20030;-72
2023/04/19 10:33:41;;;;;;;1.90;1.70;;;;;;;22.42;27.52;102815.09;5036653;28;20061;-72
2023/04/19 10:36:13;;;;;;;3.92;1.77;;;;;;;22.53;29.34;102815.59;5035992;28;20060;-72
2023/04/19 10:38:41;;;;;;;3.47;1.88;;;;;;;23.03;28.75;102812.78;5035203;28;20037;-72
2023/04/19 10:41:11;;;;;;;3.95;1.80;;;;;;;23.12;29.12;102813.63;5036417;28;20128;-72
2023/04/19 10:44:02;;;;;;;6.55;2.05;;;;;;;22.97;28.15;102800.75;5036058;28;20521;-74
2023/04/19 10:46:28;;;;;;;1.70;1.60;;;;;;;23.02;27.79;102802.94;5035544;28;20480;-75
2023/04/19 10:48:58;;;;;;;6.07;1.77;;;;;;;23.18;28.77;102797.47;5035501;28;20080;-75
2023/04/19 10:51:35;;;;;;;3.60;1.80;;;;;;;22.69;27.23;102803.00;5035242;28;20043;-74
2023/04/19 10:54:05;;;;;;;2.17;1.70;;;;;;;22.75;27.18;102801.47;5035651;28;20080;-73
2023/04/19 10:56:33;;;;;;;5.50;1.80;;;;;;;22.74;27.34;102800.63;5035807;28;20034;-74
2023/04/19 10:59:01;;;;;;;5.45;2.30;;;;;;;22.66;28.72;102806.94;5034764;28;20025;-73
2023/04/19 11:01:41;;;;;;;4.43;1.95;;;;;;;23.06;29.62;102799.72;5035606;28;20410;-76
2023/04/19 11:04:12;;;;;;;5.68;2.30;;;;;;;22.88;28.27;102804.50;5034947;28;20029;-76
2023/04/19 11:06:56;;;;;;;6.30;2.40;;;;;;;22.80;29.24;102797.22;5035592;28;20045;-76
2023/04/19 11:09:26;;;;;;;3.17;2.00;;;;;;;23.04;29.82;102790.03;5035095;28;20026;-76